Time;durP1;ratioP1;P1;durP2;ratioP2;P2;SDS_P1;SDS_P2;PMS_P1;PMS_P2;Temp;Humidity;BMP_temperature;BMP_pressure;BME280_temperature;BME280_humidity;BME280_pressure;Samples;Min_cycle;Max_cycle;Signal;HPM_P1;HPM_P2
2021/12/22 00:00:13;;;;;;;29.97;16.30;;;-5.90;1.00;;;;;;4939565;29;20708;-85
2021/12/22 00:02:46;;;;;;;24.60;15.37;;;-6.00;1.00;;;;;;4923789;29;20274;-86
2021/12/22 00:05:37;;;;;;;28.33;16.13;;;-5.90;1.00;;;;;;4923181;29;20618;-86
2021/12/22 00:08:09;;;;;;;29.47;16.20;;;-5.90;1.00;;;;;;4924832;29;20562;-85
2021/12/22 00:10:36;;;;;;;26.40;16.20;;;-6.00;1.00;;;;;;4958063;29;20632;-85
2021/12/22 00:13:02;;;;;;;27.47;16.63;;;-5.90;1.00;;;;;;4950564;28;20188;-84
2021/12/22 00:15:30;;;;;;;29.07;17.17;;;-6.00;1.00;;;;;;4958817;29;20589;-85
2021/12/22 00:17:57;;;;;;;26.07;14.93;;;-6.10;1.00;;;;;;4960219;28;20195;-85
2021/12/22 00:20:24;;;;;;;28.40;16.87;;;-6.00;1.00;;;;;;4925219;29;20191;-85
2021/12/22 00:22:51;;;;;;;25.40;15.43;;;-6.00;1.00;;;;;;4923471;29;20228;-85
2021/12/22 00:25:21;;;;;;;29.07;15.90;;;-6.10;1.00;;;;;;4922592;29;20291;-86
2021/12/22 00:27:47;;;;;;;30.77;16.80;;;-6.10;1.00;;;;;;4939589;29;20671;-85
2021/12/22 00:30:14;;;;;;;27.23;16.13;;;-6.10;1.00;;;;;;4937901;29;20665;-85
2021/12/22 00:32:49;;;;;;;29.60;16.50;;;-6.10;1.00;;;;;;4927876;29;20565;-86
2021/12/22 00:35:18;;;;;;;27.93;16.00;;;-6.10;1.00;;;;;;4942795;29;20202;-86
2021/12/22 00:37:46;;;;;;;30.97;15.00;;;-6.00;1.00;;;;;;4917159;29;20184;-86
2021/12/22 00:40:13;;;;;;;28.07;16.17;;;-6.00;1.00;;;;;;4922376;29;20262;-86
2021/12/22 00:42:40;;;;;;;29.83;15.53;;;-6.00;1.00;;;;;;4940635;29;20218;-84
2021/12/22 00:45:07;;;;;;;29.67;16.23;;;-6.00;1.00;;;;;;4956603;29;20678;-85
2021/12/22 00:47:35;;;;;;;31.30;15.70;;;-6.00;1.00;;;;;;4939063;29;20202;-85
2021/12/22 00:50:04;;;;;;;27.07;15.57;;;-6.00;1.00;;;;;;4935228;29;20203;-85
2021/12/22 00:52:31;;;;;;;28.67;16.63;;;-6.00;1.00;;;;;;4956314;28;20226;-84
2021/12/22 00:54:58;;;;;;;53.33;26.47;;;-6.00;1.00;;;;;;4940431;29;20207;-85
2021/12/22 00:57:25;;;;;;;51.07;22.90;;;-6.00;1.00;;;;;;4937173;29;20268;-85
2021/12/22 00:59:51;;;;;;;96.23;36.73;;;-6.00;1.00;;;;;;4957618;28;20257;-85
2021/12/22 01:02:20;;;;;;;63.97;27.00;;;-6.00;1.00;;;;;;4926343;29;20202;-84
2021/12/22 01:04:47;;;;;;;160.87;48.00;;;-6.00;1.00;;;;;;4922080;29;20298;-84
2021/12/22 01:07:16;;;;;;;80.93;30.10;;;-6.00;1.00;;;;;;4923643;29;20271;-85
2021/12/22 01:09:43;;;;;;;46.30;20.50;;;-6.00;1.00;;;;;;4941122;29;20298;-85
2021/12/22 01:12:12;;;;;;;38.03;19.17;;;-6.00;1.00;;;;;;4940052;29;20620;-85
2021/12/22 01:14:39;;;;;;;37.77;21.40;;;-6.00;1.00;;;;;;4937826;29;20644;-84
2021/12/22 01:17:10;;;;;;;32.40;18.47;;;-5.90;1.00;;;;;;4921677;29;20242;-84
2021/12/22 01:20:25;;;;;;;31.13;16.60;;;-5.90;1.00;;;;;;4921953;29;20227;-85
2021/12/22 01:25:11;;;;;;;29.43;14.90;;;-5.90;1.00;;;;;;4948092;29;20202;-85
2021/12/22 01:27:41;;;;;;;27.57;15.43;;;-5.90;1.00;;;;;;4956224;28;20662;-85
2021/12/22 01:30:15;;;;;;;25.17;14.80;;;-5.90;1.00;;;;;;4955670;28;20226;-86
2021/12/22 01:32:43;;;;;;;26.67;16.30;;;-5.90;1.00;;;;;;4937284;29;20276;-84
2021/12/22 01:35:12;;;;;;;28.27;17.13;;;-5.90;1.00;;;;;;4922370;29;20268;-85
2021/12/22 01:37:40;;;;;;;29.93;17.13;;;-5.90;1.00;;;;;;4924781;29;20200;-85
2021/12/22 01:40:09;;;;;;;28.57;16.13;;;-5.90;1.00;;;;;;4922254;29;20224;-85
2021/12/22 01:42:36;;;;;;;29.77;16.03;;;-5.90;1.00;;;;;;4921864;29;20294;-84
2021/12/22 01:51:36;;;;;;;27.07;16.00;;;-6.00;1.00;;;;;;4936545;29;20219;-84
2021/12/22 01:54:08;;;;;;;26.03;16.17;;;-6.00;1.00;;;;;;4928865;29;20191;-85
2021/12/22 01:56:35;;;;;;;29.07;15.17;;;-5.90;1.00;;;;;;4939735;29;20231;-85
2021/12/22 01:59:06;;;;;;;26.50;16.40;;;-5.90;1.00;;;;;;4947851;28;20254;-84
2021/12/22 02:01:33;;;;;;;25.77;14.90;;;-6.00;1.00;;;;;;4921268;29;20196;-85
2021/12/22 02:04:02;;;;;;;32.57;16.90;;;-6.00;1.00;;;;;;4944432;29;20614;-84
2021/12/22 02:06:31;;;;;;;28.77;16.17;;;-6.00;1.00;;;;;;4941470;29;20195;-84
2021/12/22 02:08:59;;;;;;;26.97;15.87;;;-6.00;1.00;;;;;;4957597;28;20250;-85
2021/12/22 02:11:26;;;;;;;26.63;16.80;;;-6.00;1.00;;;;;;4954134;28;20220;-85
2021/12/22 02:14:00;;;;;;;30.27;17.13;;;-6.00;1.00;;;;;;4938447;29;20210;-85
2021/12/22 02:16:33;;;;;;;28.10;16.20;;;-6.00;1.00;;;;;;4955811;29;20191;-84
2021/12/22 02:19:01;;;;;;;28.53;15.53;;;-6.00;1.00;;;;;;4951289;29;20270;-85
2021/12/22 02:21:32;;;;;;;30.60;15.47;;;-6.00;1.00;;;;;;4921440;29;20682;-84
2021/12/22 02:23:59;;;;;;;26.77;15.37;;;-6.00;1.00;;;;;;4936167;29;20198;-84
2021/12/22 02:26:46;;;;;;;32.67;17.73;;;-6.00;1.00;;;;;;4920259;29;20601;-85
2021/12/22 02:29:21;;;;;;;25.03;16.00;;;-6.00;1.00;;;;;;4921207;29;20215;-84
2021/12/22 02:32:55;;;;;;;27.03;16.13;;;-6.00;1.00;;;;;;4936880;29;20547;-84
2021/12/22 02:34:48;;;;;;;28.83;16.37;;;-6.10;1.00;;;;;;4935495;29;20195;-84
2021/12/22 02:37:18;;;;;;;27.40;16.57;;;-6.10;1.00;;;;;;4935298;29;20257;-84
2021/12/22 02:39:56;;;;;;;31.13;16.73;;;-6.10;1.00;;;;;;4920893;29;20188;-85
2021/12/22 02:42:27;;;;;;;28.53;16.53;;;-6.10;1.00;;;;;;4921670;29;20242;-84
2021/12/22 02:44:53;;;;;;;27.33;16.57;;;-6.00;1.00;;;;;;4924138;29;20191;-85
2021/12/22 02:47:24;;;;;;;26.97;16.97;;;-6.00;1.00;;;;;;4920586;29;20204;-85
2021/12/22 02:49:51;;;;;;;38.70;20.47;;;-6.00;1.00;;;;;;4936496;29;20203;-84
2021/12/22 02:52:19;;;;;;;30.60;16.53;;;-6.00;1.00;;;;;;4936448;29;20278;-84
2021/12/22 02:54:55;;;;;;;35.67;17.77;;;-6.00;1.00;;;;;;4936378;28;20730;-84
2021/12/22 03:05:28;;;;;;;51.97;21.97;;;-6.00;1.00;;;;;;4951873;28;20207;-85
2021/12/22 03:07:56;;;;;;;117.67;37.73;;;-6.00;1.00;;;;;;4939596;28;20195;-85
2021/12/22 03:10:23;;;;;;;118.27;35.80;;;-6.00;1.00;;;;;;4936156;29;20292;-85
2021/12/22 03:12:52;;;;;;;47.60;28.17;;;-6.10;1.00;;;;;;4944835;29;20262;-85
2021/12/22 03:15:20;;;;;;;30.00;17.43;;;-6.00;1.00;;;;;;4939013;29;20203;-86
2021/12/22 03:17:48;;;;;;;37.47;22.83;;;-6.10;1.00;;;;;;4922687;29;20742;-85
2021/12/22 03:20:15;;;;;;;32.07;19.67;;;-6.00;1.00;;;;;;4935486;29;20939;-86
2021/12/22 03:22:45;;;;;;;30.53;16.90;;;-6.00;1.00;;;;;;4920071;29;20195;-85
2021/12/22 03:25:15;;;;;;;26.40;16.40;;;-6.00;1.00;;;;;;4938276;29;20225;-84
2021/12/22 03:27:47;;;;;;;28.80;14.50;;;-6.00;1.00;;;;;;4951400;28;20227;-85
2021/12/22 03:30:17;;;;;;;28.50;16.33;;;-6.00;1.00;;;;;;4947055;29;20275;-85
2021/12/22 03:32:44;;;;;;;27.33;16.00;;;-6.00;1.00;;;;;;4921422;29;20220;-85
2021/12/22 03:35:16;;;;;;;29.93;18.07;;;-6.00;1.00;;;;;;4919408;29;20227;-85
2021/12/22 03:37:45;;;;;;;27.03;15.03;;;-5.90;1.00;;;;;;4921206;29;20255;-84
2021/12/22 03:40:12;;;;;;;26.13;15.33;;;-5.90;1.00;;;;;;4939069;29;20246;-85
2021/12/22 03:42:39;;;;;;;26.90;15.70;;;-5.90;1.00;;;;;;4926237;29;20196;-85
2021/12/22 03:45:07;;;;;;;28.10;15.50;;;-5.90;1.00;;;;;;4919755;29;20189;-86
2021/12/22 03:47:34;;;;;;;28.30;16.50;;;-5.90;1.00;;;;;;4930947;29;20188;-85
2021/12/22 03:50:01;;;;;;;26.27;16.23;;;-5.90;1.00;;;;;;4939214;29;20682;-85
2021/12/22 03:52:28;;;;;;;25.17;14.93;;;-5.90;1.00;;;;;;4928460;29;20274;-85
2021/12/22 03:55:01;;;;;;;27.97;15.80;;;-5.90;1.00;;;;;;4935291;29;20251;-85
2021/12/22 03:57:28;;;;;;;27.87;15.63;;;-5.90;1.00;;;;;;4935112;29;20685;-85
2021/12/22 03:59:58;;;;;;;29.37;15.73;;;-6.00;1.00;;;;;;4919606;29;20254;-86
2021/12/22 04:02:27;;;;;;;27.40;16.23;;;-6.00;1.00;;;;;;4945588;29;20661;-85
2021/12/22 04:04:54;;;;;;;29.07;16.80;;;-6.00;1.00;;;;;;4939403;29;20658;-85
2021/12/22 04:07:21;;;;;;;26.20;15.13;;;-6.00;1.00;;;;;;4939292;29;20207;-85
2021/12/22 04:09:48;;;;;;;24.50;14.60;;;-6.00;1.00;;;;;;4947829;28;20259;-85
2021/12/22 04:12:14;;;;;;;28.07;15.43;;;-6.00;1.00;;;;;;4938567;29;20306;-86
2021/12/22 04:14:41;;;;;;;25.10;14.47;;;-6.00;1.00;;;;;;4938552;29;20211;-86
2021/12/22 04:17:08;;;;;;;26.73;16.03;;;-6.00;1.00;;;;;;4934177;29;20184;-85
2021/12/22 04:19:35;;;;;;;27.97;16.27;;;-6.00;1.00;;;;;;4954707;29;20654;-86
2021/12/22 04:22:04;;;;;;;25.43;15.40;;;-6.10;1.00;;;;;;4941573;29;20297;-86
2021/12/22 04:24:31;;;;;;;25.57;14.10;;;-6.10;1.00;;;;;;4958725;29;20218;-86
2021/12/22 04:26:58;;;;;;;30.07;15.77;;;-6.10;1.00;;;;;;4917468;29;20256;-86
2021/12/22 04:29:25;;;;;;;27.87;15.73;;;-6.10;1.00;;;;;;4923569;29;20232;-86
2021/12/22 04:31:52;;;;;;;27.83;16.43;;;-6.10;1.00;;;;;;4940573;29;20244;-86
2021/12/22 04:34:19;;;;;;;28.10;14.97;;;-6.10;1.00;;;;;;4923267;29;20199;-85
2021/12/22 04:36:46;;;;;;;26.93;15.57;;;-6.10;1.00;;;;;;4922932;29;20199;-86
2021/12/22 04:39:13;;;;;;;29.53;16.30;;;-6.20;1.00;;;;;;4922723;29;20718;-85
2021/12/22 04:41:40;;;;;;;27.23;15.50;;;-6.20;1.00;;;;;;4945374;29;20552;-86
2021/12/22 04:44:07;;;;;;;28.90;17.40;;;-6.20;1.00;;;;;;4959647;28;20717;-85
2021/12/22 04:46:34;;;;;;;28.23;16.67;;;-6.20;1.00;;;;;;4930445;29;20196;-85
2021/12/22 04:49:03;;;;;;;29.63;16.23;;;-6.20;1.00;;;;;;4940240;29;20251;-85
2021/12/22 04:51:32;;;;;;;29.03;16.87;;;-6.20;1.00;;;;;;4934828;29;20282;-85
2021/12/22 04:56:57;;;;;;;27.27;15.37;;;-6.20;1.00;;;;;;4943416;29;20199;-84
2021/12/22 04:59:24;;;;;;;30.40;16.83;;;-6.20;1.00;;;;;;4955144;29;20251;-84
2021/12/22 05:01:51;;;;;;;27.20;16.23;;;-6.20;1.00;;;;;;4939081;29;20223;-85
2021/12/22 05:04:19;;;;;;;30.10;16.87;;;-6.20;1.00;;;;;;4924159;29;20243;-86
2021/12/22 05:06:45;;;;;;;31.87;17.10;;;-6.20;1.00;;;;;;4932121;29;20179;-85
2021/12/22 05:09:12;;;;;;;29.47;15.87;;;-6.20;1.00;;;;;;4926102;29;20188;-85
2021/12/22 05:11:40;;;;;;;30.20;17.40;;;-6.10;1.00;;;;;;4938111;29;20180;-85
2021/12/22 05:14:08;;;;;;;31.67;17.13;;;-6.20;1.00;;;;;;4936648;29;20247;-84
2021/12/22 05:16:44;;;;;;;29.77;16.40;;;-6.10;1.00;;;;;;4926481;29;20192;-85
2021/12/22 05:19:14;;;;;;;29.43;16.53;;;-6.20;1.00;;;;;;4952736;28;20221;-85
2021/12/22 05:21:45;;;;;;;29.43;17.57;;;-6.10;1.00;;;;;;4927040;29;20183;-84
2021/12/22 05:24:12;;;;;;;29.23;16.43;;;-6.20;1.00;;;;;;4956899;28;20273;-85
2021/12/22 05:26:39;;;;;;;32.27;17.40;;;-6.20;1.00;;;;;;4936055;29;20285;-85
2021/12/22 05:29:06;;;;;;;30.47;18.07;;;-6.20;1.00;;;;;;4923735;29;20227;-85
2021/12/22 05:31:33;;;;;;;29.10;17.30;;;-6.30;1.00;;;;;;4940589;29;20195;-85
2021/12/22 05:34:00;;;;;;;30.00;16.77;;;-6.30;1.00;;;;;;4936146;29;20211;-86
2021/12/22 05:36:28;;;;;;;32.30;17.23;;;-6.30;1.00;;;;;;4940931;29;20199;-86
2021/12/22 05:38:55;;;;;;;28.40;17.37;;;-6.30;1.00;;;;;;4958749;28;20187;-86
2021/12/22 05:41:22;;;;;;;30.63;16.63;;;-6.30;1.00;;;;;;4931540;29;20188;-85
2021/12/22 05:43:49;;;;;;;32.10;17.63;;;-6.30;1.00;;;;;;4924243;29;20215;-85
2021/12/22 05:46:16;;;;;;;31.63;18.30;;;-6.20;1.00;;;;;;4936522;29;20207;-85
2021/12/22 05:48:44;;;;;;;27.83;15.00;;;-6.20;1.00;;;;;;4932136;28;20198;-85
2021/12/22 05:51:11;;;;;;;29.17;16.77;;;-6.20;1.00;;;;;;4930320;29;20681;-85
2021/12/22 05:53:39;;;;;;;28.70;16.30;;;-6.20;1.00;;;;;;4937748;29;20218;-85
2021/12/22 05:56:06;;;;;;;29.73;16.87;;;-6.20;1.00;;;;;;4939372;29;20266;-85
2021/12/22 05:58:33;;;;;;;29.90;17.57;;;-6.30;1.00;;;;;;4920908;29;20715;-86
2021/12/22 06:01:00;;;;;;;32.50;16.83;;;-6.30;1.00;;;;;;4939565;29;20307;-85
2021/12/22 06:03:28;;;;;;;29.43;15.83;;;-6.40;1.00;;;;;;4929625;29;20191;-85
2021/12/22 06:05:55;;;;;;;27.30;16.13;;;-6.30;1.00;;;;;;4940066;29;20215;-85
2021/12/22 06:08:22;;;;;;;29.90;15.90;;;-6.40;1.00;;;;;;4930843;29;20234;-85
2021/12/22 06:10:49;;;;;;;29.27;16.67;;;-6.40;1.00;;;;;;4920395;29;20289;-86
2021/12/22 06:13:16;;;;;;;27.97;16.00;;;-6.40;1.00;;;;;;4942279;29;20678;-85
2021/12/22 06:15:43;;;;;;;31.50;17.27;;;-6.40;1.00;;;;;;4944901;28;20274;-85
2021/12/22 06:18:10;;;;;;;31.70;17.37;;;-6.40;1.00;;;;;;4954239;28;20242;-85
2021/12/22 06:20:37;;;;;;;28.53;15.83;;;-6.40;1.00;;;;;;4952522;28;20190;-85
2021/12/22 06:23:04;;;;;;;27.67;16.33;;;-6.40;1.00;;;;;;4935882;29;20222;-85
2021/12/22 06:25:35;;;;;;;30.70;16.60;;;-6.40;1.00;;;;;;4935485;29;20195;-85
2021/12/22 06:28:02;;;;;;;30.40;17.17;;;-6.40;1.00;;;;;;4938378;29;20192;-84
2021/12/22 06:30:30;;;;;;;36.60;18.00;;;-6.40;1.00;;;;;;4938777;29;20202;-85
2021/12/22 06:32:57;;;;;;;31.77;17.10;;;-6.50;1.00;;;;;;4954362;29;20227;-85
2021/12/22 06:35:23;;;;;;;45.33;21.77;;;-6.50;1.00;;;;;;4954451;28;20190;-85
2021/12/22 06:37:52;;;;;;;33.50;18.33;;;-6.50;1.00;;;;;;4934726;29;20195;-85
2021/12/22 06:40:20;;;;;;;40.33;20.47;;;-6.50;1.00;;;;;;4935148;29;20609;-84
2021/12/22 06:42:47;;;;;;;79.97;29.23;;;-6.50;1.00;;;;;;4937581;29;20433;-85
2021/12/22 06:45:14;;;;;;;55.27;23.63;;;-6.60;1.00;;;;;;4931863;29;20204;-85
2021/12/22 06:47:42;;;;;;;90.30;37.27;;;-6.60;1.00;;;;;;4924186;29;20287;-84
2021/12/22 06:50:10;;;;;;;33.30;16.93;;;-6.60;1.00;;;;;;4934646;29;20662;-84
2021/12/22 06:52:37;;;;;;;58.73;25.07;;;-6.60;1.00;;;;;;4935342;29;20207;-84
2021/12/22 06:55:06;;;;;;;42.80;21.33;;;-6.60;1.00;;;;;;4920105;29;20290;-84
2021/12/22 06:57:34;;;;;;;41.70;21.03;;;-6.70;1.00;;;;;;4919310;29;20203;-84
2021/12/22 07:00:06;;;;;;;34.70;18.80;;;-6.60;1.00;;;;;;4938516;29;20226;-84
2021/12/22 07:02:37;;;;;;;32.47;17.63;;;-6.50;1.00;;;;;;4903932;29;20207;-85
2021/12/22 07:05:07;;;;;;;31.00;17.27;;;-6.50;1.00;;;;;;4936645;29;20808;-87
2021/12/22 07:07:34;;;;;;;30.17;18.23;;;-6.40;1.00;;;;;;4933376;29;20271;-85
2021/12/22 07:10:02;;;;;;;34.87;18.33;;;-6.40;1.00;;;;;;4934177;29;20223;-84
2021/12/22 07:12:29;;;;;;;32.27;17.80;;;-6.40;1.00;;;;;;4927043;29;20668;-85
2021/12/22 07:14:56;;;;;;;33.07;18.20;;;-6.40;1.00;;;;;;4931743;29;20286;-85
2021/12/22 07:17:23;;;;;;;32.50;20.03;;;-6.40;1.00;;;;;;4931591;29;20199;-86
2021/12/22 07:19:50;;;;;;;29.77;17.83;;;-6.30;1.00;;;;;;4933346;29;20192;-83
2021/12/22 07:22:17;;;;;;;34.27;19.37;;;-6.40;1.00;;;;;;4933522;29;20192;-85
2021/12/22 07:24:44;;;;;;;30.53;18.03;;;-6.40;1.00;;;;;;4918231;29;20733;-84
2021/12/22 07:27:11;;;;;;;34.13;17.67;;;-6.40;1.00;;;;;;4915873;29;20549;-84
2021/12/22 07:29:38;;;;;;;32.10;17.73;;;-6.40;1.00;;;;;;4917616;29;20191;-84
2021/12/22 07:32:05;;;;;;;32.43;17.97;;;-6.30;1.00;;;;;;4917742;29;20192;-84
2021/12/22 07:34:50;;;;;;;31.43;18.20;;;-6.20;1.00;;;;;;4933012;29;20259;-82
2021/12/22 07:37:27;;;;;;;31.53;17.00;;;-6.20;1.00;;;;;;4921471;29;20180;-84
2021/12/22 07:39:54;;;;;;;32.00;19.07;;;-6.20;1.00;;;;;;4941263;29;20207;-85
2021/12/22 07:42:21;;;;;;;34.30;18.30;;;-6.10;1.00;;;;;;4933055;29;20534;-83
2021/12/22 07:44:48;;;;;;;32.50;18.73;;;-6.10;1.00;;;;;;4920696;29;20191;-83
2021/12/22 07:47:15;;;;;;;34.00;19.17;;;-6.10;1.00;;;;;;4942997;28;20598;-84
2021/12/22 07:49:42;;;;;;;32.53;19.27;;;-6.00;1.00;;;;;;4917724;29;20279;-84
2021/12/22 07:52:09;;;;;;;45.30;19.80;;;-6.00;1.00;;;;;;4935824;29;20220;-84
2021/12/22 07:54:36;;;;;;;40.00;18.67;;;-6.00;1.00;;;;;;4944399;29;20580;-82
2021/12/22 07:57:03;;;;;;;36.33;19.17;;;-5.90;1.00;;;;;;4921706;29;20234;-84
2021/12/22 07:59:30;;;;;;;31.97;17.00;;;-5.90;1.00;;;;;;4922984;29;20291;-83
2021/12/22 08:01:57;;;;;;;34.17;19.10;;;-5.90;1.00;;;;;;4922383;29;20195;-84
2021/12/22 08:04:24;;;;;;;33.57;18.17;;;-5.80;1.00;;;;;;4937302;29;20192;-81
2021/12/22 08:06:51;;;;;;;33.50;18.93;;;-5.80;1.00;;;;;;4938849;29;20247;-85
2021/12/22 08:09:18;;;;;;;31.47;17.33;;;-5.70;1.00;;;;;;4950399;29;20200;-84
2021/12/22 08:11:45;;;;;;;29.20;16.77;;;-5.60;1.00;;;;;;4923027;29;20196;-83
2021/12/22 08:14:12;;;;;;;31.20;18.90;;;-5.60;1.00;;;;;;4920971;29;20258;-84
2021/12/22 08:16:39;;;;;;;32.07;17.57;;;-5.40;1.00;;;;;;4948560;29;20191;-84
2021/12/22 08:19:06;;;;;;;32.03;17.33;;;-5.30;1.00;;;;;;4955085;28;20191;-83
2021/12/22 08:21:33;;;;;;;28.40;16.73;;;-5.10;1.00;;;;;;4921681;29;20528;-82
2021/12/22 08:24:00;;;;;;;28.47;16.90;;;-5.00;99.90;;;;;;4920677;29;20607;-83
2021/12/22 08:26:28;;;;;;;28.67;17.83;;;-4.80;99.90;;;;;;4937684;29;20611;-83
2021/12/22 08:28:55;;;;;;;29.90;16.60;;;-4.60;99.90;;;;;;4936912;29;20200;-83
2021/12/22 08:31:22;;;;;;;28.30;16.57;;;-4.40;99.90;;;;;;4920716;29;20566;-83
2021/12/22 08:33:49;;;;;;;24.10;15.10;;;-4.20;99.90;;;;;;4935955;29;20223;-83
2021/12/22 08:39:05;;;;;;;27.40;16.67;;;-3.90;28.30;;;;;;4946142;28;20191;-82
2021/12/22 08:41:35;;;;;;;27.40;16.47;;;-3.70;1.00;;;;;;4936742;29;20194;-82
2021/12/22 08:44:08;;;;;;;26.37;16.40;;;-3.40;1.00;;;;;;4920916;29;20194;-83
2021/12/22 08:46:40;;;;;;;24.90;15.90;;;-3.30;1.00;;;;;;4942146;29;20209;-83
2021/12/22 08:49:07;;;;;;;28.30;15.07;;;-3.20;99.90;;;;;;4921380;29;20756;-84
2021/12/22 08:51:36;;;;;;;24.97;14.90;;;-3.10;99.90;;;;;;4939331;29;20202;-87
2021/12/22 08:54:03;;;;;;;23.57;14.60;;;-3.00;99.90;;;;;;4921791;29;20219;-84
2021/12/22 08:56:31;;;;;;;24.23;15.87;;;-2.90;99.90;;;;;;4923581;29;20682;-82
2021/12/22 08:58:58;;;;;;;22.37;14.83;;;-2.70;99.90;;;;;;4936407;29;20202;-83
2021/12/22 09:01:26;;;;;;;25.10;14.77;;;-2.50;1.00;;;;;;4922741;29;20198;-85
2021/12/22 09:03:54;;;;;;;25.27;15.60;;;-2.40;1.00;;;;;;4938926;29;20625;-86
2021/12/22 09:06:22;;;;;;;21.73;14.33;;;-2.30;18.40;;;;;;4945124;28;20198;-84
2021/12/22 09:08:50;;;;;;;25.50;14.50;;;-2.10;1.00;;;;;;4937859;29;20194;-86
2021/12/22 09:11:18;;;;;;;25.50;15.50;;;-1.90;1.00;;;;;;4944182;29;20669;-85
2021/12/22 09:13:45;;;;;;;22.80;14.73;;;-1.80;1.00;;;;;;4927593;29;20219;-85
2021/12/22 09:16:12;;;;;;;22.53;14.07;;;-1.50;1.00;;;;;;4940102;29;20202;-84
2021/12/22 09:18:40;;;;;;;20.70;12.50;;;-1.40;99.90;;;;;;4928821;29;20203;-85
2021/12/22 09:21:09;;;;;;;20.57;12.53;;;-1.40;99.90;;;;;;4920833;29;20199;-84
2021/12/22 09:23:36;;;;;;;22.10;13.80;;;-1.20;99.90;;;;;;4922438;29;20196;-85
2021/12/22 09:26:03;;;;;;;24.83;14.70;;;-1.20;99.90;;;;;;4950815;29;20195;-84
2021/12/22 09:28:32;;;;;;;21.90;13.03;;;-1.10;99.90;;;;;;4922841;29;20621;-84
2021/12/22 09:31:00;;;;;;;21.60;14.27;;;-0.80;72.40;;;;;;4942297;29;20195;-86
2021/12/22 09:33:27;;;;;;;50.73;23.00;;;-0.70;99.90;;;;;;4926626;29;20212;-86
2021/12/22 09:35:54;;;;;;;54.17;22.83;;;-0.50;1.00;;;;;;4920844;29;20198;-85
2021/12/22 09:38:21;;;;;;;18.63;12.83;;;-0.30;45.70;;;;;;4926617;29;20521;-84
2021/12/22 09:40:49;;;;;;;21.43;13.97;;;-0.10;1.00;;;;;;4935018;29;20179;-82
2021/12/22 09:43:16;;;;;;;20.03;13.73;;;0.00;1.00;;;;;;4934640;29;20634;-85
2021/12/22 09:45:48;;;;;;;20.77;12.57;;;0.00;1.00;;;;;;4908233;29;20196;-85
2021/12/22 09:48:29;;;;;;;21.97;14.23;;;-0.10;99.90;;;;;;4927366;29;20191;-86
2021/12/22 09:53:34;;;;;;;24.50;13.30;;;-0.60;99.90;;;;;;4929977;29;20289;-88
2021/12/22 09:56:02;;;;;;;18.90;12.80;;;-1.00;1.00;;;;;;4953576;28;20219;-84
2021/12/22 09:58:29;;;;;;;18.37;12.47;;;-1.00;1.00;;;;;;4939837;29;20195;-87
2021/12/22 10:00:56;;;;;;;19.20;12.43;;;-0.90;1.00;;;;;;4931704;29;20294;-86
2021/12/22 10:03:25;;;;;;;19.23;12.60;;;-0.90;99.90;;;;;;4923546;29;20671;-85
2021/12/22 10:05:52;;;;;;;19.00;12.67;;;-0.80;99.90;;;;;;4934686;29;20195;-85
2021/12/22 10:08:22;;;;;;;21.30;12.23;;;-0.80;1.00;;;;;;4940401;29;20203;-84
2021/12/22 10:10:59;;;;;;;18.83;12.00;;;-0.70;99.90;;;;;;4921707;29;20680;-88
2021/12/22 10:13:27;;;;;;;20.73;13.20;;;-0.70;99.90;;;;;;4950153;29;20582;-87
2021/12/22 10:15:56;;;;;;;18.73;12.23;;;-0.40;1.00;;;;;;4924695;29;20188;-85
2021/12/22 10:23:53;;;;;;;15.80;11.27;;;0.50;99.90;;;;;;5108210;23;20638;-89
2021/12/22 10:26:25;;;;;;;18.30;12.20;;;0.60;4.40;;;;;;4963182;28;20659;-84
2021/12/22 10:29:04;;;;;;;19.77;12.10;;;0.60;1.00;;;;;;4978303;28;20240;-86
2021/12/22 10:31:40;;;;;;;18.30;12.83;;;0.70;1.00;;;;;;4975760;28;20222;-88
2021/12/22 10:34:15;;;;;;;28.67;16.17;;;0.70;1.00;;;;;;4972646;28;20210;-90
2021/12/22 10:36:51;;;;;;;19.87;13.13;;;1.00;1.00;;;;;;4961647;28;20197;-89
2021/12/22 10:39:27;;;;;;;19.50;13.27;;;1.10;1.00;;;;;;4960050;28;20561;-86
2021/12/22 10:42:11;;;;;;;24.43;14.60;;;1.30;99.90;;;;;;4963647;28;20197;-87
2021/12/22 10:44:47;;;;;;;21.33;14.07;;;1.60;1.00;;;;;;4957839;28;20190;-86
2021/12/22 10:49:14;;;;;;;22.27;14.60;;;1.60;1.00;;;;;;4945564;28;20551;-88
2021/12/22 10:50:17;;;;;;;17.10;12.67;;;1.50;1.00;;;;;;4963348;28;20585;-92
2021/12/22 10:52:50;;;;;;;21.97;13.10;;;1.50;1.00;;;;;;4978784;28;20199;-87
2021/12/22 10:55:17;;;;;;;18.60;12.87;;;1.80;1.00;;;;;;4977391;28;20230;-88
2021/12/22 10:57:47;;;;;;;16.37;11.87;;;2.00;1.00;;;;;;4962098;28;20202;-88
2021/12/22 11:00:22;;;;;;;18.63;11.77;;;2.00;1.00;;;;;;4977641;28;20193;-87
2021/12/22 11:03:07;;;;;;;17.20;12.03;;;2.00;1.00;;;;;;4961511;28;20198;-88
2021/12/22 11:05:47;;;;;;;21.03;13.40;;;2.00;1.00;;;;;;4960856;28;20194;-89
2021/12/22 11:08:24;;;;;;;18.87;12.23;;;2.00;1.00;;;;;;4977540;28;20194;-89
2021/12/22 11:10:53;;;;;;;19.70;12.70;;;1.90;1.00;;;;;;4957196;28;20213;-85
2021/12/22 11:13:22;;;;;;;18.27;11.80;;;1.80;1.00;;;;;;4969016;28;20673;-85
2021/12/22 11:15:51;;;;;;;18.13;12.60;;;1.80;1.00;;;;;;4960775;28;20197;-86
2021/12/22 11:18:38;;;;;;;17.37;12.57;;;1.80;1.00;;;;;;4961534;28;20187;-88
2021/12/22 11:21:16;;;;;;;17.50;12.17;;;1.70;1.00;;;;;;4984545;28;20174;-87
2021/12/22 11:23:44;;;;;;;19.27;13.03;;;1.90;1.00;;;;;;4959522;28;20222;-86
2021/12/22 11:26:14;;;;;;;19.17;13.57;;;2.20;1.00;;;;;;4961154;28;20691;-84
2021/12/22 11:28:42;;;;;;;21.07;13.53;;;2.60;1.00;;;;;;4979757;28;20540;-86
2021/12/22 11:31:11;;;;;;;27.70;15.57;;;2.90;1.00;;;;;;4968197;28;20253;-88
2021/12/22 11:33:46;;;;;;;18.97;12.47;;;3.30;1.00;;;;;;4984119;28;20276;-87
2021/12/22 11:36:14;;;;;;;17.53;12.10;;;3.50;99.90;;;;;;4962305;28;20195;-88
2021/12/22 11:38:42;;;;;;;20.93;13.07;;;3.30;1.00;;;;;;4954714;28;20207;-85
2021/12/22 11:41:18;;;;;;;18.77;12.77;;;3.60;99.90;;;;;;4945569;29;20615;-87
2021/12/22 11:43:48;;;;;;;18.77;12.37;;;3.50;99.90;;;;;;5183145;23;20214;-87
2021/12/22 11:46:16;;;;;;;19.30;13.60;;;3.30;99.90;;;;;;4962891;28;20194;-86
2021/12/22 11:48:47;;;;;;;21.07;13.90;;;3.30;1.00;;;;;;4952680;28;20199;-86
2021/12/22 11:51:41;;;;;;;19.87;14.03;;;3.40;1.00;;;;;;4967823;28;20659;-85
2021/12/22 11:54:09;;;;;;;19.67;14.40;;;3.60;99.90;;;;;;4956004;29;20238;-85
2021/12/22 11:56:45;;;;;;;19.40;12.67;;;3.90;99.90;;;;;;4974628;28;20201;-86
2021/12/22 11:59:27;;;;;;;20.10;13.57;;;4.00;99.90;;;;;;4959907;28;20198;-87
2021/12/22 12:02:16;;;;;;;18.73;13.87;;;4.10;99.90;;;;;;4973951;28;20266;-84
2021/12/22 12:04:44;;;;;;;18.93;14.53;;;3.90;1.00;;;;;;4958638;28;20218;-87
2021/12/22 12:07:42;;;;;;;19.30;13.80;;;3.90;1.00;;;;;;4973103;28;20203;-83
2021/12/22 12:10:42;;;;;;;21.30;14.60;;;3.80;1.00;;;;;;4973364;28;20191;-84
2021/12/22 12:13:40;;;;;;;20.73;13.70;;;3.80;1.00;;;;;;4969353;28;20681;-84
2021/12/22 12:21:59;;;;;;;18.10;14.03;;;4.80;99.90;;;;;;4957876;28;20657;-85
2021/12/22 12:24:32;;;;;;;19.10;14.70;;;4.90;99.90;;;;;;4949917;28;20650;-84
2021/12/22 12:27:21;;;;;;;18.50;15.00;;;5.00;99.90;;;;;;4957145;28;20222;-84
2021/12/22 12:29:55;;;;;;;20.80;14.43;;;5.20;99.90;;;;;;4970359;28;20194;-84
2021/12/22 12:32:41;;;;;;;18.50;14.80;;;5.60;99.90;;;;;;4956393;28;20201;-85
2021/12/22 12:38:19;;;;;;;17.67;15.13;;;6.50;99.90;;;;;;4957175;28;20203;-85
2021/12/22 12:41:00;;;;;;;19.50;14.05;;;6.60;99.90;;;;;;4974111;28;20262;-85
2021/12/22 12:43:45;;;;;;;19.38;15.40;;;6.70;99.90;;;;;;4955728;28;20321;-83
2021/12/22 12:46:24;;;;;;;19.13;14.48;;;6.60;99.90;;;;;;4980892;23;20225;-84
2021/12/22 12:48:56;;;;;;;19.38;15.60;;;6.70;99.90;;;;;;4996015;28;20558;-82
2021/12/22 12:51:32;;;;;;;19.55;15.38;;;6.90;99.90;;;;;;4980240;28;20588;-83
2021/12/22 12:54:02;;;;;;;22.02;15.20;;;7.00;99.90;;;;;;4964956;28;20595;-84
2021/12/22 12:56:40;;;;;;;20.20;14.88;;;7.00;99.90;;;;;;4996259;28;20190;-83
2021/12/22 12:59:16;;;;;;;20.13;15.00;;;7.10;99.90;;;;;;4979749;28;20680;-82
2021/12/22 13:01:52;;;;;;;19.85;15.75;;;7.30;99.90;;;;;;4979458;28;20198;-83
2021/12/22 13:04:51;;;;;;;20.75;15.48;;;7.20;99.90;;;;;;4980044;28;20194;-84
2021/12/22 13:07:20;;;;;;;18.17;14.90;;;7.00;99.90;;;;;;4990695;28;20221;-84
2021/12/22 13:09:50;;;;;;;20.53;15.80;;;6.40;99.90;;;;;;4971171;28;20700;-84
2021/12/22 13:18:12;;;;;;;22.23;16.13;;;5.60;99.90;;;;;;4999965;28;20189;-82
2021/12/22 13:20:43;;;;;;;21.30;16.17;;;5.50;99.90;;;;;;4986996;28;20240;-85
2021/12/22 13:23:17;;;;;;;20.37;16.40;;;5.20;99.90;;;;;;4989460;28;20218;-83
2021/12/22 13:25:47;;;;;;;24.63;17.17;;;4.70;99.90;;;;;;5000110;28;20220;-88
2021/12/22 13:28:17;;;;;;;25.47;17.00;;;4.00;99.90;;;;;;4999361;28;20239;-84
2021/12/22 13:30:55;;;;;;;26.03;16.37;;;3.60;1.00;;;;;;5015291;28;20227;-82
2021/12/22 13:33:31;;;;;;;22.13;16.10;;;3.10;1.00;;;;;;4999273;28;20845;-85
2021/12/22 13:36:05;;;;;;;23.73;17.03;;;3.00;1.00;;;;;;4981922;28;20228;-84
2021/12/22 13:38:41;;;;;;;24.47;16.80;;;2.90;1.00;;;;;;4978807;28;20183;-84